Time;durP1;ratioP1;P1;durP2;ratioP2;P2;SDS_P1;SDS_P2;PMS_P1;PMS_P2;Temp;Humidity;BMP_temperature;BMP_pressure;BME280_temperature;BME280_humidity;BME280_pressure;Samples;Min_cycle;Max_cycle;Signal;HPM_P1;HPM_P2
2022/07/18 00:01:23;;;;;;;3.38;0.22;;;14.20;98.20;;;;;;5039332;28;20045;-81
2022/07/18 00:03:50;;;;;;;2.20;0.28;;;14.30;97.80;;;;;;5043341;28;20064;-82
2022/07/18 00:06:18;;;;;;;1.02;0.10;;;14.20;97.40;;;;;;5040684;28;20044;-82
2022/07/18 00:08:45;;;;;;;1.83;0.20;;;14.30;97.90;;;;;;5048014;28;20065;-84
2022/07/18 00:11:12;;;;;;;2.42;0.28;;;14.40;97.90;;;;;;5045583;28;20037;-84
2022/07/18 00:13:40;;;;;;;0.80;0.15;;;14.60;98.00;;;;;;5041361;28;20025;-84
2022/07/18 00:16:07;;;;;;;5.78;0.20;;;14.70;97.70;;;;;;5038025;28;20528;-81
2022/07/18 00:18:35;;;;;;;1.30;0.20;;;14.60;96.90;;;;;;5046131;28;20033;-81
2022/07/18 00:21:02;;;;;;;1.05;0.40;;;14.30;96.10;;;;;;5043845;28;20037;-79
2022/07/18 00:23:29;;;;;;;1.58;0.60;;;14.30;96.30;;;;;;5045342;28;20031;-75
2022/07/18 00:25:56;;;;;;;1.65;0.10;;;14.40;96.20;;;;;;5041653;28;20136;-76
2022/07/18 00:28:24;;;;;;;0.60;0.10;;;14.30;96.20;;;;;;5046501;28;20046;-77
2022/07/18 00:30:51;;;;;;;0.60;0.20;;;14.40;96.40;;;;;;5040383;28;20056;-76
2022/07/18 00:33:18;;;;;;;1.48;0.20;;;14.50;96.40;;;;;;5044466;28;20032;-76
2022/07/18 00:35:45;;;;;;;2.05;0.52;;;14.50;96.10;;;;;;5038430;28;20072;-76
2022/07/18 00:38:13;;;;;;;1.40;0.20;;;14.40;96.00;;;;;;5042056;28;20045;-76
2022/07/18 00:40:40;;;;;;;1.88;0.50;;;14.30;95.30;;;;;;5039516;28;20071;-76
2022/07/18 00:43:07;;;;;;;1.73;0.20;;;14.30;95.80;;;;;;5048256;28;20128;-75
2022/07/18 00:45:35;;;;;;;1.38;0.20;;;14.10;95.10;;;;;;5038992;28;20099;-76
2022/07/18 00:48:07;;;;;;;2.78;0.30;;;14.10;95.00;;;;;;5038023;28;20290;-77
2022/07/18 00:50:34;;;;;;;2.67;0.30;;;14.10;95.00;;;;;;5037834;28;20029;-78
2022/07/18 00:53:01;;;;;;;2.05;0.22;;;14.00;94.30;;;;;;5041754;28;20041;-78
2022/07/18 00:55:29;;;;;;;1.60;0.32;;;14.10;94.50;;;;;;5039975;28;20040;-77
2022/07/18 00:57:57;;;;;;;0.95;0.30;;;14.10;94.60;;;;;;5042673;28;20474;-78
2022/07/18 01:03:10;;;;;;;1.90;0.17;;;14.10;94.60;;;;;;5044445;28;20552;-78
2022/07/18 01:05:37;;;;;;;0.90;0.30;;;14.20;94.60;;;;;;5044749;28;20075;-78
2022/07/18 03:36:35;;;;;;;0.85;0.30;;;15.00;92.40;;;;;;5023664;28;20046;-67
2022/07/18 03:39:03;;;;;;;1.42;0.38;;;15.00;92.30;;;;;;5030963;28;20050;-68
2022/07/18 03:41:30;;;;;;;2.67;0.20;;;14.70;91.70;;;;;;5027758;28;20042;-67
2022/07/18 03:43:58;;;;;;;4.95;0.20;;;14.70;92.20;;;;;;5030908;28;20386;-67
2022/07/18 03:46:25;;;;;;;1.10;0.10;;;14.70;91.70;;;;;;5030715;28;20061;-67
2022/07/18 03:48:53;;;;;;;0.38;0.10;;;15.00;91.60;;;;;;5031757;28;20112;-66
2022/07/18 03:51:20;;;;;;;0.98;0.30;;;14.70;90.90;;;;;;5032357;28;20045;-68
2022/07/18 03:53:47;;;;;;;1.05;0.20;;;14.50;91.10;;;;;;5031091;28;20042;-67
2022/07/18 03:56:15;;;;;;;0.60;0.17;;;14.60;91.30;;;;;;5033952;28;20034;-67
2022/07/18 03:58:43;;;;;;;2.30;0.30;;;14.70;92.00;;;;;;5030881;28;20044;-67
2022/07/18 04:01:10;;;;;;;1.55;0.10;;;14.40;91.60;;;;;;5029064;28;20060;-68
2022/07/18 04:03:40;;;;;;;1.02;0.20;;;14.40;92.20;;;;;;5024915;28;20050;-68
2022/07/18 04:06:08;;;;;;;1.88;0.20;;;14.30;92.00;;;;;;5029572;28;20098;-67
2022/07/18 04:08:35;;;;;;;2.28;0.30;;;14.40;91.90;;;;;;5031512;28;20034;-68
2022/07/18 04:11:02;;;;;;;0.43;0.00;;;14.30;91.80;;;;;;5031211;28;20052;-67
2022/07/18 04:13:29;;;;;;;1.35;0.30;;;14.30;91.60;;;;;;5013181;28;20030;-68
2022/07/18 04:15:57;;;;;;;0.50;0.10;;;14.30;91.90;;;;;;5018110;28;20084;-67
2022/07/18 04:18:24;;;;;;;2.70;0.28;;;14.10;91.90;;;;;;5035036;28;20041;-67
2022/07/18 04:20:51;;;;;;;3.20;0.40;;;14.20;92.00;;;;;;5033959;28;20029;-67
2022/07/18 04:23:18;;;;;;;2.97;0.32;;;14.20;92.30;;;;;;5030193;28;20047;-68
2022/07/18 04:25:46;;;;;;;1.75;0.25;;;14.10;91.90;;;;;;5026176;28;20038;-67
2022/07/18 04:28:14;;;;;;;1.67;0.20;;;14.10;91.80;;;;;;5022152;28;20052;-69
2022/07/18 04:30:43;;;;;;;3.38;0.40;;;14.10;91.70;;;;;;5026257;28;20030;-68
2022/07/18 04:33:11;;;;;;;2.22;0.20;;;14.20;91.80;;;;;;5016976;28;20038;-68
2022/07/18 04:35:39;;;;;;;2.03;0.40;;;14.40;91.50;;;;;;5021755;28;20715;-69
2022/07/18 04:38:08;;;;;;;1.17;0.20;;;14.20;91.10;;;;;;5025140;28;20026;-67
2022/07/18 04:40:37;;;;;;;3.00;0.35;;;14.10;90.90;;;;;;5023909;28;20029;-67
2022/07/18 04:43:05;;;;;;;2.97;0.30;;;14.10;90.60;;;;;;5027734;28;20110;-68
2022/07/18 04:45:33;;;;;;;2.03;0.77;;;14.00;91.10;;;;;;5025042;28;20030;-68
2022/07/18 04:48:02;;;;;;;4.07;0.20;;;14.10;91.30;;;;;;5027689;28;20065;-68
2022/07/18 04:50:32;;;;;;;0.65;0.30;;;14.10;91.60;;;;;;5028731;28;20113;-67
2022/07/18 04:53:00;;;;;;;1.98;0.55;;;14.30;91.40;;;;;;5028596;28;20061;-67
2022/07/18 04:55:28;;;;;;;1.38;0.45;;;14.30;91.00;;;;;;5022783;28;20026;-67
2022/07/18 04:57:56;;;;;;;1.13;0.30;;;14.00;90.80;;;;;;5025170;28;20040;-67
2022/07/18 05:00:26;;;;;;;1.80;0.30;;;14.10;91.00;;;;;;5026192;28;20037;-67
2022/07/18 05:02:56;;;;;;;1.88;0.10;;;14.20;91.30;;;;;;5017504;28;20037;-68
2022/07/18 05:05:24;;;;;;;3.50;0.20;;;14.20;91.20;;;;;;5022644;28;20038;-69
2022/07/18 05:07:52;;;;;;;4.75;0.93;;;14.40;91.50;;;;;;5005962;28;20084;-68
2022/07/18 05:10:21;;;;;;;2.90;0.10;;;14.40;91.90;;;;;;5022351;28;20044;-68
2022/07/18 05:12:53;;;;;;;1.30;0.22;;;14.30;90.30;;;;;;5018125;28;20530;-68
2022/07/18 05:15:22;;;;;;;1.35;0.05;;;14.10;89.20;;;;;;5023414;28;20054;-68
2022/07/18 05:17:49;;;;;;;0.10;0.00;;;14.10;89.00;;;;;;5027372;28;20041;-67
2022/07/18 05:20:19;;;;;;;1.13;0.10;;;14.00;88.10;;;;;;5024796;28;20038;-68
2022/07/18 05:22:47;;;;;;;1.55;0.10;;;14.00;89.40;;;;;;5020467;28;20060;-68
2022/07/18 05:25:15;;;;;;;1.23;0.10;;;14.00;89.20;;;;;;5024636;28;20038;-68
2022/07/18 05:27:43;;;;;;;1.48;0.20;;;13.90;88.00;;;;;;5027392;28;20036;-67
2022/07/18 05:30:13;;;;;;;1.38;0.35;;;14.00;89.40;;;;;;5022025;28;20026;-66
2022/07/18 05:32:41;;;;;;;1.00;0.10;;;14.10;90.00;;;;;;5028114;28;20045;-66
2022/07/18 05:35:10;;;;;;;1.20;0.30;;;14.20;90.60;;;;;;5028436;28;20054;-66
2022/07/18 05:37:38;;;;;;;0.98;0.20;;;14.20;90.90;;;;;;5032825;28;20048;-67
2022/07/18 05:40:08;;;;;;;5.60;0.35;;;14.10;90.90;;;;;;5033205;28;20022;-67
2022/07/18 05:42:36;;;;;;;1.02;0.20;;;14.00;91.10;;;;;;5030966;28;20022;-66
2022/07/18 05:45:04;;;;;;;0.63;0.10;;;14.20;91.10;;;;;;5033499;28;20090;-66
2022/07/18 05:47:31;;;;;;;1.50;0.20;;;14.10;91.10;;;;;;5030458;28;20030;-65
2022/07/18 05:49:59;;;;;;;1.35;0.13;;;14.00;91.30;;;;;;5029059;28;20036;-66
2022/07/18 05:52:26;;;;;;;2.00;0.40;;;14.00;90.80;;;;;;5032135;28;20038;-67
2022/07/18 05:54:53;;;;;;;1.35;0.20;;;14.00;91.10;;;;;;5034851;28;20073;-67
2022/07/18 05:57:21;;;;;;;1.83;0.30;;;13.80;92.10;;;;;;5028307;28;20049;-67
2022/07/18 05:59:48;;;;;;;0.55;0.10;;;13.80;92.50;;;;;;5031532;28;20042;-67
2022/07/18 06:02:15;;;;;;;1.20;0.10;;;13.80;93.00;;;;;;5028325;28;20120;-65
2022/07/18 06:04:43;;;;;;;0.30;0.10;;;13.90;93.00;;;;;;5026649;28;20040;-66
2022/07/18 06:07:10;;;;;;;0.57;0.20;;;13.80;92.30;;;;;;5014162;28;20042;-65
2022/07/18 06:09:37;;;;;;;0.30;0.00;;;13.70;92.00;;;;;;5004787;28;20038;-65
2022/07/18 06:12:05;;;;;;;1.48;0.10;;;13.70;91.90;;;;;;5009811;28;20037;-65
2022/07/18 06:14:32;;;;;;;2.05;0.40;;;13.60;92.30;;;;;;4990942;28;20041;-65
2022/07/18 06:17:00;;;;;;;0.88;0.20;;;13.70;92.40;;;;;;5008391;28;20030;-65
2022/07/18 06:19:27;;;;;;;1.15;0.40;;;13.70;92.60;;;;;;5011582;28;20176;-65
2022/07/18 06:21:54;;;;;;;0.55;0.10;;;13.70;92.80;;;;;;5015194;28;20494;-66
2022/07/18 06:24:22;;;;;;;1.65;0.10;;;13.60;92.20;;;;;;5012825;28;20047;-66
2022/07/18 06:26:49;;;;;;;1.92;0.20;;;13.50;92.80;;;;;;5005985;28;20376;-66
2022/07/18 06:29:17;;;;;;;1.90;0.38;;;13.60;92.80;;;;;;5009385;28;22347;-66
2022/07/18 06:31:45;;;;;;;1.95;0.20;;;13.50;93.00;;;;;;5013160;28;20041;-66
2022/07/18 06:34:12;;;;;;;2.03;0.60;;;13.50;93.00;;;;;;5006808;28;20116;-66
2022/07/18 06:36:39;;;;;;;1.75;0.40;;;13.40;92.50;;;;;;5001483;28;20033;-66
2022/07/18 06:39:10;;;;;;;0.88;0.30;;;13.20;92.50;;;;;;4998226;28;20030;-65
2022/07/18 06:41:39;;;;;;;2.50;0.20;;;13.20;93.00;;;;;;4994231;28;20064;-65
2022/07/18 06:44:06;;;;;;;2.25;0.40;;;13.20;93.00;;;;;;4996592;28;20030;-65
2022/07/18 06:46:36;;;;;;;1.08;0.20;;;13.10;92.70;;;;;;5011089;28;20544;-66
2022/07/18 06:49:04;;;;;;;0.85;0.20;;;13.10;92.80;;;;;;5013573;28;20084;-66
2022/07/18 06:51:32;;;;;;;3.05;0.47;;;13.00;92.90;;;;;;5008574;28;20042;-66
2022/07/18 06:53:59;;;;;;;1.77;0.17;;;12.90;92.70;;;;;;5009749;28;20065;-65
2022/07/18 06:56:26;;;;;;;1.55;0.10;;;12.90;93.00;;;;;;5008919;28;20038;-66
2022/07/18 06:58:54;;;;;;;1.23;0.28;;;12.90;93.40;;;;;;5008402;28;20026;-65
2022/07/18 07:01:24;;;;;;;1.25;0.30;;;12.90;92.80;;;;;;5010210;28;20110;-66
2022/07/18 07:03:52;;;;;;;2.88;0.40;;;12.80;93.40;;;;;;4991028;28;20033;-67
2022/07/18 07:06:19;;;;;;;4.75;0.40;;;12.70;93.40;;;;;;5011838;28;20041;-67
2022/07/18 07:08:46;;;;;;;1.38;0.28;;;12.60;93.60;;;;;;4994989;28;20037;-65
2022/07/18 07:11:14;;;;;;;1.63;0.30;;;12.60;94.20;;;;;;5009731;28;20141;-65
2022/07/18 07:13:41;;;;;;;2.92;1.35;;;12.50;94.40;;;;;;5015022;28;20038;-65
2022/07/18 07:16:09;;;;;;;6.32;4.47;;;12.40;94.00;;;;;;5013025;28;20049;-65
2022/07/18 07:18:36;;;;;;;5.93;2.45;;;12.40;93.90;;;;;;5012807;28;20036;-65
2022/07/18 07:21:03;;;;;;;2.65;1.05;;;12.40;94.00;;;;;;5012906;28;20116;-65
2022/07/18 07:23:31;;;;;;;3.65;0.60;;;12.40;94.70;;;;;;5012132;28;20033;-65
2022/07/18 07:25:58;;;;;;;1.23;0.30;;;12.30;94.30;;;;;;5014226;28;20465;-65
2022/07/18 07:28:25;;;;;;;2.33;0.93;;;12.40;94.40;;;;;;5024687;28;20113;-65
2022/07/18 07:30:53;;;;;;;1.88;0.77;;;12.20;94.60;;;;;;5020599;28;20029;-65
2022/07/18 07:33:20;;;;;;;3.80;0.30;;;12.30;94.50;;;;;;5025353;28;20097;-66
2022/07/18 07:35:47;;;;;;;1.15;0.65;;;12.20;94.70;;;;;;5021297;28;20061;-66
2022/07/18 07:38:18;;;;;;;1.70;0.40;;;12.30;94.40;;;;;;5017375;28;20124;-66
2022/07/18 07:40:48;;;;;;;2.25;0.57;;;12.10;95.00;;;;;;5017250;28;20176;-66
2022/07/18 07:43:17;;;;;;;3.33;0.50;;;12.00;94.80;;;;;;5019847;28;20030;-67
2022/07/18 07:45:50;;;;;;;4.72;1.00;;;12.00;95.10;;;;;;5026539;28;20399;-66
2022/07/18 07:48:17;;;;;;;6.25;2.35;;;11.90;95.00;;;;;;5018238;28;20029;-65
2022/07/18 07:50:45;;;;;;;4.18;3.15;;;12.00;95.00;;;;;;5013403;28;20026;-65
2022/07/18 07:53:12;;;;;;;3.15;1.20;;;11.90;95.00;;;;;;5010917;28;20045;-66
2022/07/18 07:55:39;;;;;;;3.30;1.02;;;11.90;95.00;;;;;;5011150;28;20065;-66
2022/07/18 07:58:07;;;;;;;4.70;0.73;;;11.80;95.20;;;;;;5009031;28;20034;-66
2022/07/18 08:00:34;;;;;;;3.90;0.75;;;11.80;95.10;;;;;;5014670;28;20056;-66
2022/07/18 08:03:04;;;;;;;3.13;0.80;;;11.80;95.40;;;;;;5014180;28;20109;-66
2022/07/18 08:05:37;;;;;;;1.52;0.60;;;11.80;95.40;;;;;;5017416;28;20022;-66
2022/07/18 08:08:06;;;;;;;2.85;0.77;;;11.80;95.10;;;;;;5025409;28;20041;-68
2022/07/18 08:10:33;;;;;;;2.22;1.05;;;11.70;95.30;;;;;;5021117;28;20057;-68
2022/07/18 08:13:01;;;;;;;3.60;1.73;;;11.60;95.40;;;;;;5020324;28;20434;-68
2022/07/18 08:15:28;;;;;;;2.45;1.60;;;11.60;95.30;;;;;;5027052;28;20041;-68
2022/07/18 08:17:56;;;;;;;4.57;1.48;;;11.60;95.70;;;;;;5025568;28;20046;-68
2022/07/18 08:20:23;;;;;;;2.25;0.88;;;11.50;95.80;;;;;;5020373;28;20034;-67
2022/07/18 08:22:59;;;;;;;2.85;0.50;;;11.60;95.80;;;;;;5014806;28;20037;-68
2022/07/18 08:25:29;;;;;;;2.45;0.90;;;11.50;96.20;;;;;;5022085;28;20033;-68
2022/07/18 08:27:57;;;;;;;3.97;0.75;;;11.50;96.60;;;;;;5018941;28;20062;-68
2022/07/18 08:30:26;;;;;;;3.15;0.90;;;11.50;96.30;;;;;;5022419;28;20038;-68
2022/07/18 08:32:53;;;;;;;3.45;1.13;;;11.50;96.30;;;;;;5019756;28;20046;-67
2022/07/18 08:35:20;;;;;;;2.13;0.93;;;11.60;96.60;;;;;;5019235;28;20046;-67
2022/07/18 08:37:48;;;;;;;3.90;1.23;;;11.50;95.90;;;;;;5019041;28;20025;-67
2022/07/18 08:40:15;;;;;;;2.08;0.60;;;11.60;96.20;;;;;;5026676;28;20057;-68
2022/07/18 08:42:43;;;;;;;3.10;0.60;;;11.60;95.90;;;;;;5018324;28;20036;-67
2022/07/18 08:45:10;;;;;;;3.22;0.90;;;11.50;95.70;;;;;;5025295;28;20042;-68
2022/07/18 08:47:38;;;;;;;4.22;0.90;;;11.50;96.00;;;;;;5021137;28;20041;-67
2022/07/18 08:50:07;;;;;;;2.63;0.88;;;11.40;96.10;;;;;;5021790;28;20031;-68
2022/07/18 08:52:35;;;;;;;3.63;1.60;;;11.40;96.00;;;;;;5026447;28;20047;-68
2022/07/18 08:55:03;;;;;;;8.23;4.90;;;11.30;96.20;;;;;;5021572;28;20023;-67
2022/07/18 08:57:31;;;;;;;8.88;1.77;;;11.40;96.40;;;;;;5025182;28;20041;-70
2022/07/18 08:59:58;;;;;;;3.95;0.73;;;11.20;96.50;;;;;;5023047;28;20025;-68
2022/07/18 09:02:27;;;;;;;1.92;0.60;;;11.20;96.20;;;;;;5027581;28;20045;-68
2022/07/18 09:04:55;;;;;;;3.63;0.77;;;11.20;96.40;;;;;;5034274;28;20041;-67
2022/07/18 09:07:27;;;;;;;4.80;1.55;;;11.20;96.50;;;;;;5035819;28;20033;-67
2022/07/18 09:10:00;;;;;;;3.70;0.85;;;11.10;96.40;;;;;;5026762;28;20148;-67
2022/07/18 09:12:30;;;;;;;2.47;0.60;;;11.20;96.40;;;;;;5011976;28;20064;-68
2022/07/18 09:14:58;;;;;;;3.88;0.98;;;11.10;96.90;;;;;;5015495;28;20034;-68
2022/07/18 09:17:30;;;;;;;3.35;0.98;;;11.10;96.80;;;;;;5026333;28;20057;-68
2022/07/18 09:20:17;;;;;;;2.45;0.65;;;11.10;96.60;;;;;;5020398;28;20046;-68
2022/07/18 09:22:49;;;;;;;2.58;0.75;;;11.10;96.50;;;;;;5018688;28;20038;-69
2022/07/18 09:25:24;;;;;;;5.57;0.75;;;11.10;96.60;;;;;;5021921;28;20042;-68
2022/07/18 09:27:53;;;;;;;4.55;1.05;;;11.10;96.70;;;;;;5001995;28;20038;-68
2022/07/18 09:30:33;;;;;;;3.45;0.90;;;11.00;96.90;;;;;;5021337;28;20454;-69
2022/07/18 09:33:03;;;;;;;2.72;1.13;;;10.80;97.00;;;;;;5027514;28;20097;-69
2022/07/18 09:35:36;;;;;;;3.70;0.73;;;10.90;97.10;;;;;;5025667;28;20069;-69
2022/07/18 09:38:07;;;;;;;6.85;1.42;;;10.90;97.10;;;;;;5013821;28;20042;-68
2022/07/18 09:40:40;;;;;;;2.78;0.50;;;10.90;96.80;;;;;;5014901;28;20066;-68
2022/07/18 09:43:11;;;;;;;3.92;0.70;;;10.80;97.20;;;;;;5013483;28;20037;-69
2022/07/18 09:45:42;;;;;;;3.85;1.30;;;10.80;97.10;;;;;;5017646;28;20030;-69
2022/07/18 09:48:12;;;;;;;2.80;0.80;;;10.70;97.40;;;;;;5020836;28;20030;-67
2022/07/18 09:50:55;;;;;;;4.70;1.40;;;10.70;97.80;;;;;;5018995;28;20026;-67
2022/07/18 09:53:36;;;;;;;2.22;1.08;;;10.60;98.40;;;;;;5027833;28;20034;-69
2022/07/18 09:56:06;;;;;;;2.25;0.75;;;10.60;98.80;;;;;;5026202;28;20022;-68
2022/07/18 09:58:54;;;;;;;3.78;0.85;;;10.60;99.10;;;;;;5025128;28;20164;-68
2022/07/18 10:01:22;;;;;;;2.80;1.02;;;10.50;99.60;;;;;;5027695;28;20104;-69
2022/07/18 10:03:50;;;;;;;2.42;0.90;;;10.40;99.50;;;;;;5029344;28;20034;-68
2022/07/18 10:06:18;;;;;;;3.22;1.35;;;10.50;99.20;;;;;;5018503;28;20045;-68
2022/07/18 10:08:46;;;;;;;2.03;0.80;;;10.40;99.60;;;;;;5025508;28;20030;-68
2022/07/18 10:11:13;;;;;;;3.33;1.02;;;10.40;99.60;;;;;;5010754;28;20052;-68
2022/07/18 10:13:41;;;;;;;3.80;1.25;;;10.40;99.60;;;;;;5028065;28;20037;-68
2022/07/18 10:16:08;;;;;;;3.63;1.60;;;10.30;99.70;;;;;;5028788;28;20033;-69
2022/07/18 10:18:37;;;;;;;4.07;1.42;;;10.40;99.40;;;;;;5008541;28;20041;-68
2022/07/18 10:21:08;;;;;;;2.40;0.85;;;10.40;99.40;;;;;;5025977;28;20273;-69
2022/07/18 10:23:41;;;;;;;3.15;1.05;;;10.20;99.60;;;;;;5007958;28;20037;-69
2022/07/18 10:26:16;;;;;;;4.30;1.60;;;10.20;99.70;;;;;;5025151;28;20049;-69
2022/07/18 10:28:59;;;;;;;2.65;0.93;;;10.20;99.50;;;;;;5025964;28;20041;-69
2022/07/18 10:31:31;;;;;;;3.80;0.73;;;10.10;99.70;;;;;;5022942;28;20109;-69
2022/07/18 10:34:07;;;;;;;2.20;0.63;;;10.00;99.60;;;;;;5024445;28;20048;-69
2022/07/18 10:36:40;;;;;;;3.55;1.00;;;10.10;99.60;;;;;;5024065;28;20037;-69
2022/07/18 10:39:12;;;;;;;3.13;0.82;;;10.10;99.50;;;;;;5010846;28;20458;-69
2022/07/18 10:41:45;;;;;;;2.15;0.75;;;9.90;99.50;;;;;;4997582;28;20065;-69
2022/07/18 10:44:31;;;;;;;2.55;1.05;;;10.00;99.70;;;;;;5023422;28;20105;-69
2022/07/18 10:47:12;;;;;;;2.83;0.82;;;9.90;99.90;;;;;;5007608;28;20024;-69
2022/07/18 10:49:48;;;;;;;2.58;1.00;;;9.90;99.90;;;;;;5020527;28;20494;-68
2022/07/18 10:52:36;;;;;;;4.18;1.08;;;9.80;99.90;;;;;;5019497;28;20058;-68
2022/07/18 10:55:03;;;;;;;7.60;1.55;;;9.90;99.90;;;;;;5019759;28;20034;-69
2022/07/18 10:57:40;;;;;;;4.45;1.20;;;9.80;99.90;;;;;;5018934;28;20037;-69
2022/07/18 11:00:15;;;;;;;2.83;1.10;;;9.80;99.90;;;;;;5023084;28;20033;-68
2022/07/18 11:03:09;;;;;;;3.50;1.27;;;9.70;99.90;;;;;;5026043;28;20034;-68
2022/07/18 11:05:37;;;;;;;2.20;1.03;;;9.80;99.90;;;;;;5021339;28;20402;-69
2022/07/18 11:08:04;;;;;;;4.47;1.10;;;9.60;99.90;;;;;;5023471;28;20394;-69
2022/07/18 11:10:49;;;;;;;2.00;0.90;;;9.70;99.90;;;;;;5007110;28;20045;-69
2022/07/18 11:13:23;;;;;;;;;;;9.60;99.90;;;;;;5001985;28;20537;-69
2022/07/18 11:16:08;;;;;;;3.38;1.38;;;9.70;99.90;;;;;;5008465;28;19909;-68
2022/07/18 11:18:45;;;;;;;2.25;1.27;;;9.70;99.90;;;;;;5022753;28;20506;-69
2022/07/18 11:21:32;;;;;;;3.35;1.23;;;9.70;99.90;;;;;;5024300;28;20042;-68
2022/07/18 11:24:08;;;;;;;3.95;1.50;;;9.80;99.90;;;;;;5025083;28;20038;-69
2022/07/18 11:26:38;;;;;;;3.70;1.25;;;9.80;99.90;;;;;;5025478;28;20038;-68
2022/07/18 11:29:09;;;;;;;3.05;1.35;;;9.80;99.90;;;;;;5015887;28;20030;-68
2022/07/18 11:31:46;;;;;;;4.80;1.25;;;9.70;99.90;;;;;;5021517;28;20101;-69
2022/07/18 11:34:14;;;;;;;2.95;1.10;;;9.80;99.90;;;;;;5017758;28;20110;-68
2022/07/18 11:36:47;;;;;;;3.05;1.35;;;9.80;99.90;;;;;;5018501;28;20045;-68
2022/07/18 11:39:15;;;;;;;2.85;1.52;;;9.70;99.90;;;;;;5011409;28;20042;-70
2022/07/18 11:41:42;;;;;;;2.78;1.23;;;9.70;99.90;;;;;;5020795;28;20026;-69
2022/07/18 11:44:30;;;;;;;2.85;1.13;;;9.80;99.90;;;;;;5021107;28;20026;-69
2022/07/18 11:47:23;;;;;;;4.10;1.38;;;9.60;99.90;;;;;;5021194;28;20049;-68
2022/07/18 11:49:57;;;;;;;4.63;1.33;;;9.60;99.90;;;;;;5020036;28;20066;-68
2022/07/18 11:52:25;;;;;;;1.95;1.27;;;9.60;99.90;;;;;;5021956;28;20042;-68
2022/07/18 11:54:52;;;;;;;4.07;1.38;;;9.50;99.90;;;;;;5032378;28;20117;-69
2022/07/18 11:57:37;;;;;;;1.98;0.93;;;9.50;99.90;;;;;;5029005;28;20038;-68
2022/07/18 12:00:22;;;;;;;3.80;0.80;;;9.40;99.90;;;;;;5029616;28;20069;-67
2022/07/18 12:02:50;;;;;;;4.38;1.20;;;9.50;99.90;;;;;;5030848;28;20038;-67
2022/07/18 12:05:17;;;;;;;2.40;1.27;;;9.50;99.90;;;;;;5025484;28;20049;-67
2022/07/18 12:07:45;;;;;;;4.50;1.17;;;9.60;99.90;;;;;;5030273;28;20061;-67
2022/07/18 12:10:18;;;;;;;2.83;0.90;;;9.70;99.90;;;;;;5029423;28;20033;-67
2022/07/18 12:12:47;;;;;;;4.10;1.00;;;9.60;99.90;;;;;;5028954;28;20046;-67
2022/07/18 12:15:15;;;;;;;2.80;0.90;;;9.60;99.90;;;;;;5018038;28;20054;-67
2022/07/18 12:17:52;;;;;;;6.25;1.25;;;9.60;99.90;;;;;;5016672;28;20410;-67
2022/07/18 12:20:23;;;;;;;5.57;2.17;;;9.50;99.90;;;;;;5017392;28;20034;-67
2022/07/18 12:23:11;;;;;;;3.30;1.30;;;9.60;99.90;;;;;;5032670;28;20026;-67
2022/07/18 12:25:42;;;;;;;4.03;1.05;;;9.60;99.90;;;;;;5034649;28;20033;-67
2022/07/18 12:28:15;;;;;;;3.00;1.00;;;9.80;99.90;;;;;;5030781;28;20106;-68
2022/07/18 12:30:42;;;;;;;2.63;0.93;;;9.70;99.90;;;;;;5030374;28;20046;-67
2022/07/18 12:33:10;;;;;;;2.00;0.77;;;9.70;99.90;;;;;;5031395;28;20072;-67
2022/07/18 12:35:39;;;;;;;2.72;0.88;;;9.60;99.90;;;;;;5035436;28;20046;-66
2022/07/18 12:38:15;;;;;;;4.15;0.85;;;9.60;99.90;;;;;;5029713;28;20041;-67
2022/07/18 12:40:54;;;;;;;5.50;1.25;;;9.60;99.90;;;;;;5026981;28;20057;-68
2022/07/18 12:43:35;;;;;;;2.92;1.02;;;9.60;99.90;;;;;;5030781;28;20030;-67
2022/07/18 12:46:06;;;;;;;2.78;1.00;;;9.50;99.90;;;;;;5031354;28;20022;-67
2022/07/18 12:48:35;;;;;;;6.70;1.13;;;9.60;99.90;;;;;;5029314;28;20049;-67
2022/07/18 12:51:05;;;;;;;2.55;1.00;;;9.60;99.90;;;;;;5027647;28;20053;-67
2022/07/18 12:53:35;;;;;;;3.10;1.00;;;9.60;99.90;;;;;;5028654;28;20068;-67
2022/07/18 12:56:03;;;;;;;2.63;1.13;;;9.40;99.90;;;;;;5033321;28;20061;-68
2022/07/18 12:58:31;;;;;;;3.38;1.05;;;9.50;99.90;;;;;;5031426;28;20041;-67
2022/07/18 13:00:58;;;;;;;4.65;1.45;;;9.50;99.90;;;;;;5026405;28;20040;-67
2022/07/18 13:03:25;;;;;;;3.55;0.98;;;9.50;99.90;;;;;;5027500;28;20026;-67
2022/07/18 13:05:53;;;;;;;3.72;1.27;;;9.40;99.90;;;;;;5023337;28;20038;-67
2022/07/18 13:08:22;;;;;;;5.78;1.65;;;9.50;99.90;;;;;;5027970;28;20033;-67
2022/07/18 13:10:50;;;;;;;4.00;1.05;;;9.40;99.90;;;;;;5029864;28;20105;-67
2022/07/18 13:13:17;;;;;;;3.00;0.70;;;9.40;99.90;;;;;;5020910;28;20038;-67
2022/07/18 13:15:45;;;;;;;2.58;1.00;;;9.40;99.90;;;;;;5022672;28;20043;-67
2022/07/18 13:18:12;;;;;;;2.80;0.73;;;9.40;99.90;;;;;;5031881;28;20041;-66
2022/07/18 13:20:41;;;;;;;2.78;1.23;;;9.50;99.90;;;;;;5032002;28;20038;-67
2022/07/18 13:23:11;;;;;;;5.60;0.82;;;9.50;99.90;;;;;;5025828;28;20097;-67
2022/07/18 13:25:38;;;;;;;1.70;0.77;;;9.40;99.90;;;;;;5034411;28;20041;-67
2022/07/18 13:28:05;;;;;;;4.75;0.70;;;9.40;99.90;;;;;;5033365;28;20122;-67
2022/07/18 13:30:33;;;;;;;3.10;0.80;;;9.30;99.90;;;;;;5031838;28;20039;-67
2022/07/18 13:33:00;;;;;;;1.88;0.80;;;9.40;99.90;;;;;;5036099;28;20054;-67
2022/07/18 13:35:28;;;;;;;1.67;0.75;;;9.30;99.90;;;;;;5035657;28;20041;-66
2022/07/18 13:37:56;;;;;;;3.33;0.80;;;9.30;99.90;;;;;;5033045;28;20034;-67
2022/07/18 13:40:23;;;;;;;4.35;0.85;;;9.40;99.90;;;;;;5031938;28;20097;-66
2022/07/18 13:42:50;;;;;;;2.55;0.80;;;9.40;99.90;;;;;;5034781;28;20048;-67
2022/07/18 13:45:18;;;;;;;4.20;1.02;;;9.40;99.90;;;;;;5005579;28;20089;-67
2022/07/18 13:47:45;;;;;;;3.80;0.80;;;9.40;99.90;;;;;;5027035;28;20053;-66
2022/07/18 13:50:13;;;;;;;3.05;0.98;;;9.40;99.90;;;;;;5033945;28;20022;-67
2022/07/18 13:52:40;;;;;;;5.65;1.73;;;9.40;99.90;;;;;;5023998;28;20064;-66
2022/07/18 13:55:08;;;;;;;1.83;0.80;;;9.50;99.90;;;;;;5013507;28;20030;-66
2022/07/18 13:57:37;;;;;;;4.22;1.10;;;9.50;99.90;;;;;;5033204;28;20038;-66
2022/07/18 14:00:05;;;;;;;4.47;1.27;;;9.50;99.90;;;;;;5027686;28;20034;-67
2022/07/18 14:02:33;;;;;;;3.17;1.42;;;9.40;99.90;;;;;;5030689;28;20030;-67
2022/07/18 14:05:00;;;;;;;4.05;1.02;;;9.40;99.90;;;;;;5030010;28;20050;-67
2022/07/18 14:07:27;;;;;;;5.10;1.25;;;9.50;99.90;;;;;;5029676;28;20014;-66
2022/07/18 14:09:55;;;;;;;4.38;1.52;;;9.40;99.90;;;;;;5026436;28;20102;-67
2022/07/18 14:12:22;;;;;;;5.18;1.10;;;9.30;99.90;;;;;;5027752;28;20030;-67
2022/07/18 14:14:49;;;;;;;5.43;0.80;;;9.30;99.90;;;;;;5030234;28;20041;-67
2022/07/18 14:17:16;;;;;;;2.75;0.80;;;9.30;99.90;;;;;;5026527;28;20116;-67
2022/07/18 14:19:44;;;;;;;2.25;0.75;;;9.40;99.90;;;;;;5029962;28;20040;-67
2022/07/18 14:22:12;;;;;;;2.30;0.90;;;9.50;99.90;;;;;;5024082;28;20048;-67
2022/07/18 14:24:39;;;;;;;4.45;1.25;;;9.60;99.90;;;;;;5031538;28;20058;-68
2022/07/18 14:27:07;;;;;;;3.40;0.68;;;9.60;99.90;;;;;;5029240;28;20037;-68
2022/07/18 14:29:34;;;;;;;3.58;0.60;;;9.60;99.90;;;;;;5030305;28;20048;-67
2022/07/18 14:32:01;;;;;;;2.38;0.57;;;9.60;99.90;;;;;;5027791;28;20513;-67
2022/07/18 14:34:28;;;;;;;3.15;1.00;;;9.60;99.90;;;;;;5029248;28;20057;-68
2022/07/18 14:36:55;;;;;;;3.17;1.05;;;9.80;99.90;;;;;;5025854;28;20038;-68
2022/07/18 14:39:23;;;;;;;2.70;0.55;;;9.90;99.90;;;;;;5031777;28;20044;-67
2022/07/18 14:41:50;;;;;;;2.40;0.55;;;9.90;99.90;;;;;;5033453;28;20049;-68
2022/07/18 14:44:17;;;;;;;4.35;0.80;;;10.00;99.90;;;;;;5028228;28;20038;-67
2022/07/18 14:46:44;;;;;;;3.20;0.45;;;10.10;99.90;;;;;;5026508;28;20043;-67
2022/07/18 14:49:12;;;;;;;4.10;1.02;;;10.20;99.90;;;;;;5031467;28;20056;-67
2022/07/18 14:51:39;;;;;;;3.28;0.52;;;10.20;99.90;;;;;;5027496;28;20053;-67
2022/07/18 14:54:09;;;;;;;3.78;0.45;;;10.20;99.90;;;;;;5034320;28;20094;-67
2022/07/18 14:56:36;;;;;;;4.20;0.70;;;10.20;99.90;;;;;;5017436;28;20038;-68
2022/07/18 14:59:03;;;;;;;4.03;1.15;;;10.30;99.90;;;;;;5027500;28;20057;-67
2022/07/18 15:01:32;;;;;;;7.80;0.93;;;10.30;99.90;;;;;;5030367;28;20029;-69
2022/07/18 15:04:00;;;;;;;4.47;0.93;;;10.30;99.90;;;;;;5030272;28;20029;-67
2022/07/18 15:06:27;;;;;;;2.83;0.63;;;10.30;99.90;;;;;;5031597;28;20046;-67
2022/07/18 15:08:55;;;;;;;3.97;0.50;;;10.40;99.90;;;;;;5031286;28;20014;-67
2022/07/18 15:11:23;;;;;;;3.55;0.47;;;10.30;99.90;;;;;;5028618;28;20034;-67
2022/07/18 15:13:52;;;;;;;2.55;0.50;;;10.40;99.90;;;;;;5031503;28;20056;-67
2022/07/18 15:16:19;;;;;;;2.40;0.40;;;10.30;99.90;;;;;;5031675;28;20045;-67
2022/07/18 15:18:46;;;;;;;3.35;0.50;;;10.30;99.90;;;;;;5032332;28;20146;-67
2022/07/18 15:21:14;;;;;;;2.17;0.40;;;10.30;99.90;;;;;;5030169;28;20133;-66
2022/07/18 15:23:41;;;;;;;4.43;0.82;;;10.30;99.90;;;;;;5031825;28;20073;-68
2022/07/18 15:26:09;;;;;;;1.95;0.40;;;10.30;99.90;;;;;;5030385;28;20044;-67
2022/07/18 15:28:36;;;;;;;3.78;0.32;;;10.30;99.90;;;;;;5030012;28;20044;-67
2022/07/18 15:31:04;;;;;;;4.53;0.57;;;10.30;99.90;;;;;;5033817;28;20034;-66
2022/07/18 15:33:31;;;;;;;4.15;0.85;;;10.30;99.90;;;;;;5034973;28;20045;-67